sensor_id;sensor_type;location;lat;lon;timestamp;temperature;humidity
37788;DHT22;23627;53.302;-6.362;2023-05-10T00:02:09;12.80;99.90
37788;DHT22;23627;53.302;-6.362;2023-05-10T00:04:35;12.80;99.90
37788;DHT22;23627;53.302;-6.362;2023-05-10T00:07:00;12.80;99.90
37788;DHT22;23627;53.302;-6.362;2023-05-10T00:09:27;12.80;99.90
37788;DHT22;23627;53.302;-6.362;2023-05-10T00:11:52;12.80;99.90
37788;DHT22;23627;53.302;-6.362;2023-05-10T00:14:18;12.80;99.90
37788;DHT22;23627;53.302;-6.362;2023-05-10T00:16:44;12.70;99.90
37788;DHT22;23627;53.302;-6.362;2023-05-10T00:19:10;12.70;99.90
37788;DHT22;23627;53.302;-6.362;2023-05-10T00:21:36;12.70;99.90
37788;DHT22;23627;53.302;-6.362;2023-05-10T00:24:02;12.70;99.90
37788;DHT22;23627;53.302;-6.362;2023-05-10T00:26:28;12.70;99.90
37788;DHT22;23627;53.302;-6.362;2023-05-10T00:28:53;12.70;99.90
37788;DHT22;23627;53.302;-6.362;2023-05-10T00:31:19;12.70;99.90
37788;DHT22;23627;53.302;-6.362;2023-05-10T00:33:45;12.70;99.90
37788;DHT22;23627;53.302;-6.362;2023-05-10T00:36:11;12.70;99.90
37788;DHT22;23627;53.302;-6.362;2023-05-10T00:38:37;12.60;99.90
37788;DHT22;23627;53.302;-6.362;2023-05-10T00:41:03;12.60;99.90
37788;DHT22;23627;53.302;-6.362;2023-05-10T00:43:32;12.60;99.90
37788;DHT22;23627;53.302;-6.362;2023-05-10T00:45:57;12.70;99.90
37788;DHT22;23627;53.302;-6.362;2023-05-10T00:48:23;12.60;99.90
37788;DHT22;23627;53.302;-6.362;2023-05-10T00:50:49;12.60;99.90
37788;DHT22;23627;53.302;-6.362;2023-05-10T00:53:16;12.60;99.90
37788;DHT22;23627;53.302;-6.362;2023-05-10T00:55:42;12.60;99.90
37788;DHT22;23627;53.302;-6.362;2023-05-10T00:58:09;12.60;99.90
37788;DHT22;23627;53.302;-6.362;2023-05-10T01:00:35;12.50;99.90
37788;DHT22;23627;53.302;-6.362;2023-05-10T01:03:02;12.50;99.90
37788;DHT22;23627;53.302;-6.362;2023-05-10T01:05:28;12.50;99.90
37788;DHT22;23627;53.302;-6.362;2023-05-10T01:07:54;12.50;99.90
37788;DHT22;23627;53.302;-6.362;2023-05-10T01:10:20;12.50;99.90
37788;DHT22;23627;53.302;-6.362;2023-05-10T01:12:46;12.50;99.90
37788;DHT22;23627;53.302;-6.362;2023-05-10T01:15:14;12.50;99.90
37788;DHT22;23627;53.302;-6.362;2023-05-10T01:17:42;12.50;99.90
37788;DHT22;23627;53.302;-6.362;2023-05-10T01:20:10;12.50;99.90
37788;DHT22;23627;53.302;-6.362;2023-05-10T01:34:15;12.40;99.90
37788;DHT22;23627;53.302;-6.362;2023-05-10T01:36:48;12.40;99.90
37788;DHT22;23627;53.302;-6.362;2023-05-10T01:40:09;12.40;99.90
37788;DHT22;23627;53.302;-6.362;2023-05-10T01:42:19;12.40;99.90
37788;DHT22;23627;53.302;-6.362;2023-05-10T01:47:48;12.30;99.90
37788;DHT22;23627;53.302;-6.362;2023-05-10T01:50:20;12.30;99.90
37788;DHT22;23627;53.302;-6.362;2023-05-10T01:52:53;12.30;99.90
37788;DHT22;23627;53.302;-6.362;2023-05-10T01:55:21;12.30;99.90
37788;DHT22;23627;53.302;-6.362;2023-05-10T01:57:53;12.30;99.90
37788;DHT22;23627;53.302;-6.362;2023-05-10T02:00:22;12.30;99.90
37788;DHT22;23627;53.302;-6.362;2023-05-10T02:02:49;12.30;99.90
37788;DHT22;23627;53.302;-6.362;2023-05-10T02:05:18;12.30;99.90
37788;DHT22;23627;53.302;-6.362;2023-05-10T02:07:46;12.30;99.90
37788;DHT22;23627;53.302;-6.362;2023-05-10T02:10:13;12.30;99.90
37788;DHT22;23627;53.302;-6.362;2023-05-10T02:12:42;12.30;99.90
37788;DHT22;23627;53.302;-6.362;2023-05-10T02:15:11;12.30;99.90
37788;DHT22;23627;53.302;-6.362;2023-05-10T02:17:38;12.20;99.90
37788;DHT22;23627;53.302;-6.362;2023-05-10T02:20:06;12.20;99.90
37788;DHT22;23627;53.302;-6.362;2023-05-10T02:22:34;12.20;99.90
37788;DHT22;23627;53.302;-6.362;2023-05-10T02:25:01;12.20;99.90
37788;DHT22;23627;53.302;-6.362;2023-05-10T02:27:29;12.20;99.90
37788;DHT22;23627;53.302;-6.362;2023-05-10T02:29:56;12.20;99.90
37788;DHT22;23627;53.302;-6.362;2023-05-10T02:32:26;12.20;99.90
37788;DHT22;23627;53.302;-6.362;2023-05-10T02:34:53;12.20;99.90
37788;DHT22;23627;53.302;-6.362;2023-05-10T02:37:20;12.20;99.90
37788;DHT22;23627;53.302;-6.362;2023-05-10T02:39:50;12.20;99.90
37788;DHT22;23627;53.302;-6.362;2023-05-10T02:42:19;12.20;99.90
37788;DHT22;23627;53.302;-6.362;2023-05-10T02:44:50;12.20;99.90
37788;DHT22;23627;53.302;-6.362;2023-05-10T02:47:18;12.20;99.90
37788;DHT22;23627;53.302;-6.362;2023-05-10T02:49:45;12.10;99.90
37788;DHT22;23627;53.302;-6.362;2023-05-10T02:52:16;12.20;99.90
37788;DHT22;23627;53.302;-6.362;2023-05-10T02:54:46;12.10;99.90
37788;DHT22;23627;53.302;-6.362;2023-05-10T02:57:17;12.20;99.90
37788;DHT22;23627;53.302;-6.362;2023-05-10T02:59:45;12.10;99.90
37788;DHT22;23627;53.302;-6.362;2023-05-10T03:02:14;12.10;99.90
37788;DHT22;23627;53.302;-6.362;2023-05-10T03:04:40;12.10;99.90
37788;DHT22;23627;53.302;-6.362;2023-05-10T03:07:07;12.10;99.90
37788;DHT22;23627;53.302;-6.362;2023-05-10T03:09:33;12.10;99.90
37788;DHT22;23627;53.302;-6.362;2023-05-10T03:12:23;12.10;99.90
37788;DHT22;23627;53.302;-6.362;2023-05-10T03:20:44;12.10;99.90
37788;DHT22;23627;53.302;-6.362;2023-05-10T03:25:40;12.10;99.90
37788;DHT22;23627;53.302;-6.362;2023-05-10T03:28:06;12.10;99.90
37788;DHT22;23627;53.302;-6.362;2023-05-10T03:30:33;12.10;99.90
37788;DHT22;23627;53.302;-6.362;2023-05-10T03:33:05;12.10;99.90
37788;DHT22;23627;53.302;-6.362;2023-05-10T03:35:31;12.10;99.90
37788;DHT22;23627;53.302;-6.362;2023-05-10T03:37:57;12.10;99.90
37788;DHT22;23627;53.302;-6.362;2023-05-10T03:40:24;12.10;99.90
37788;DHT22;23627;53.302;-6.362;2023-05-10T03:42:50;12.00;99.90
37788;DHT22;23627;53.302;-6.362;2023-05-10T03:45:15;12.00;99.90
37788;DHT22;23627;53.302;-6.362;2023-05-10T03:47:41;12.00;99.90
37788;DHT22;23627;53.302;-6.362;2023-05-10T03:50:07;12.00;99.90
37788;DHT22;23627;53.302;-6.362;2023-05-10T03:52:33;12.00;99.90
37788;DHT22;23627;53.302;-6.362;2023-05-10T03:54:59;12.00;99.90
37788;DHT22;23627;53.302;-6.362;2023-05-10T03:57:25;12.00;99.90
37788;DHT22;23627;53.302;-6.362;2023-05-10T03:59:50;12.00;99.90
37788;DHT22;23627;53.302;-6.362;2023-05-10T04:02:16;12.00;99.90
37788;DHT22;23627;53.302;-6.362;2023-05-10T04:04:44;12.00;99.90
37788;DHT22;23627;53.302;-6.362;2023-05-10T04:07:13;12.00;99.90
37788;DHT22;23627;53.302;-6.362;2023-05-10T04:09:39;12.00;99.90
37788;DHT22;23627;53.302;-6.362;2023-05-10T04:12:06;12.00;99.90
37788;DHT22;23627;53.302;-6.362;2023-05-10T04:14:34;12.00;99.90
37788;DHT22;23627;53.302;-6.362;2023-05-10T04:17:02;12.00;99.90
37788;DHT22;23627;53.302;-6.362;2023-05-10T04:19:31;12.00;99.90
37788;DHT22;23627;53.302;-6.362;2023-05-10T04:21:58;12.00;99.90
37788;DHT22;23627;53.302;-6.362;2023-05-10T04:24:27;12.00;99.90
37788;DHT22;23627;53.302;-6.362;2023-05-10T04:26:54;12.00;99.90
37788;DHT22;23627;53.302;-6.362;2023-05-10T04:29:20;12.00;99.90
37788;DHT22;23627;53.302;-6.362;2023-05-10T04:31:46;12.00;99.90
37788;DHT22;23627;53.302;-6.362;2023-05-10T04:34:12;12.00;99.90
37788;DHT22;23627;53.302;-6.362;2023-05-10T04:36:38;12.00;99.90
37788;DHT22;23627;53.302;-6.362;2023-05-10T04:39:04;12.00;99.90
37788;DHT22;23627;53.302;-6.362;2023-05-10T04:41:30;11.90;99.90
37788;DHT22;23627;53.302;-6.362;2023-05-10T04:43:56;11.90;99.90
37788;DHT22;23627;53.302;-6.362;2023-05-10T04:46:21;11.90;99.90
37788;DHT22;23627;53.302;-6.362;2023-05-10T04:48:47;11.90;99.90
37788;DHT22;23627;53.302;-6.362;2023-05-10T04:51:13;11.90;99.90
37788;DHT22;23627;53.302;-6.362;2023-05-10T04:53:39;11.90;99.90
37788;DHT22;23627;53.302;-6.362;2023-05-10T04:56:05;11.90;99.90
37788;DHT22;23627;53.302;-6.362;2023-05-10T04:58:31;11.90;99.90
37788;DHT22;23627;53.302;-6.362;2023-05-10T05:00:57;11.90;99.90
37788;DHT22;23627;53.302;-6.362;2023-05-10T05:03:23;11.90;99.90
37788;DHT22;23627;53.302;-6.362;2023-05-10T05:05:48;11.90;99.90
37788;DHT22;23627;53.302;-6.362;2023-05-10T05:08:14;11.90;99.90
37788;DHT22;23627;53.302;-6.362;2023-05-10T05:10:40;11.90;99.90
37788;DHT22;23627;53.302;-6.362;2023-05-10T05:13:06;11.90;99.90
37788;DHT22;23627;53.302;-6.362;2023-05-10T05:15:31;11.90;99.90
37788;DHT22;23627;53.302;-6.362;2023-05-10T05:17:57;11.90;99.90
37788;DHT22;23627;53.302;-6.362;2023-05-10T05:20:23;11.90;99.90
37788;DHT22;23627;53.302;-6.362;2023-05-10T05:22:49;11.90;99.90
37788;DHT22;23627;53.302;-6.362;2023-05-10T05:25:14;11.90;99.90
37788;DHT22;23627;53.302;-6.362;2023-05-10T05:27:41;11.90;99.90
37788;DHT22;23627;53.302;-6.362;2023-05-10T05:30:07;11.90;99.90
37788;DHT22;23627;53.302;-6.362;2023-05-10T05:32:33;11.90;99.90
37788;DHT22;23627;53.302;-6.362;2023-05-10T05:34:59;11.90;99.90
37788;DHT22;23627;53.302;-6.362;2023-05-10T05:37:26;11.90;99.90
37788;DHT22;23627;53.302;-6.362;2023-05-10T05:39:51;11.90;99.90
37788;DHT22;23627;53.302;-6.362;2023-05-10T05:42:17;11.90;99.90
37788;DHT22;23627;53.302;-6.362;2023-05-10T05:44:44;11.90;99.90
37788;DHT22;23627;53.302;-6.362;2023-05-10T05:47:10;11.90;99.90
37788;DHT22;23627;53.302;-6.362;2023-05-10T05:49:36;12.00;99.90
37788;DHT22;23627;53.302;-6.362;2023-05-10T05:52:02;12.00;99.90
37788;DHT22;23627;53.302;-6.362;2023-05-10T05:54:29;12.00;99.90
37788;DHT22;23627;53.302;-6.362;2023-05-10T05:56:58;12.00;99.90
37788;DHT22;23627;53.302;-6.362;2023-05-10T05:59:25;12.10;99.90
37788;DHT22;23627;53.302;-6.362;2023-05-10T06:01:50;12.10;99.90
37788;DHT22;23627;53.302;-6.362;2023-05-10T06:04:17;12.20;99.90
37788;DHT22;23627;53.302;-6.362;2023-05-10T06:06:43;12.20;99.90
37788;DHT22;23627;53.302;-6.362;2023-05-10T06:09:09;12.30;99.90
37788;DHT22;23627;53.302;-6.362;2023-05-10T06:11:35;12.40;99.90
37788;DHT22;23627;53.302;-6.362;2023-05-10T06:14:03;12.40;99.90
37788;DHT22;23627;53.302;-6.362;2023-05-10T06:16:30;12.50;99.90
37788;DHT22;23627;53.302;-6.362;2023-05-10T06:18:56;12.60;99.90
37788;DHT22;23627;53.302;-6.362;2023-05-10T06:21:22;12.60;99.90
37788;DHT22;23627;53.302;-6.362;2023-05-10T06:23:48;12.70;99.90
37788;DHT22;23627;53.302;-6.362;2023-05-10T06:26:13;12.70;99.90
37788;DHT22;23627;53.302;-6.362;2023-05-10T06:28:40;12.70;99.90
37788;DHT22;23627;53.302;-6.362;2023-05-10T06:31:06;12.70;99.90
37788;DHT22;23627;53.302;-6.362;2023-05-10T06:33:33;12.80;99.90
37788;DHT22;23627;53.302;-6.362;2023-05-10T06:35:58;12.80;99.90
37788;DHT22;23627;53.302;-6.362;2023-05-10T06:38:24;12.90;99.90
37788;DHT22;23627;53.302;-6.362;2023-05-10T06:40:50;12.90;99.90
37788;DHT22;23627;53.302;-6.362;2023-05-10T06:43:16;12.90;99.90
37788;DHT22;23627;53.302;-6.362;2023-05-10T06:45:42;12.90;99.90
37788;DHT22;23627;53.302;-6.362;2023-05-10T06:48:08;12.90;99.90
37788;DHT22;23627;53.302;-6.362;2023-05-10T06:50:34;12.90;99.90
37788;DHT22;23627;53.302;-6.362;2023-05-10T06:53:00;12.80;99.90
37788;DHT22;23627;53.302;-6.362;2023-05-10T06:55:27;12.80;99.90
37788;DHT22;23627;53.302;-6.362;2023-05-10T06:57:53;12.90;99.90
37788;DHT22;23627;53.302;-6.362;2023-05-10T07:00:19;12.90;99.90
37788;DHT22;23627;53.302;-6.362;2023-05-10T07:02:46;12.90;99.90
37788;DHT22;23627;53.302;-6.362;2023-05-10T07:11:57;13.20;99.90
37788;DHT22;23627;53.302;-6.362;2023-05-10T07:14:24;13.30;99.90
37788;DHT22;23627;53.302;-6.362;2023-05-10T07:17:07;13.40;99.90
37788;DHT22;23627;53.302;-6.362;2023-05-10T07:19:34;13.60;99.90
37788;DHT22;23627;53.302;-6.362;2023-05-10T07:22:00;13.70;99.90
37788;DHT22;23627;53.302;-6.362;2023-05-10T07:24:26;13.60;99.90
37788;DHT22;23627;53.302;-6.362;2023-05-10T07:26:52;13.60;99.90
37788;DHT22;23627;53.302;-6.362;2023-05-10T07:29:18;13.60;99.90
37788;DHT22;23627;53.302;-6.362;2023-05-10T07:31:43;13.70;99.90
37788;DHT22;23627;53.302;-6.362;2023-05-10T07:34:09;13.80;99.90
37788;DHT22;23627;53.302;-6.362;2023-05-10T07:36:35;13.90;99.90
37788;DHT22;23627;53.302;-6.362;2023-05-10T07:39:01;14.00;99.90
37788;DHT22;23627;53.302;-6.362;2023-05-10T07:41:27;14.20;99.90
37788;DHT22;23627;53.302;-6.362;2023-05-10T07:43:53;14.40;99.90
37788;DHT22;23627;53.302;-6.362;2023-05-10T07:46:18;14.50;99.90
37788;DHT22;23627;53.302;-6.362;2023-05-10T07:48:47;14.60;99.90
37788;DHT22;23627;53.302;-6.362;2023-05-10T07:51:13;14.60;99.90
37788;DHT22;23627;53.302;-6.362;2023-05-10T07:53:39;14.50;99.90
37788;DHT22;23627;53.302;-6.362;2023-05-10T07:56:31;14.60;99.90
37788;DHT22;23627;53.302;-6.362;2023-05-10T07:58:58;14.60;99.90
37788;DHT22;23627;53.302;-6.362;2023-05-10T08:01:25;14.60;99.90
37788;DHT22;23627;53.302;-6.362;2023-05-10T08:03:51;14.70;99.90
37788;DHT22;23627;53.302;-6.362;2023-05-10T08:06:19;14.80;99.90
37788;DHT22;23627;53.302;-6.362;2023-05-10T08:08:46;14.80;99.90
37788;DHT22;23627;53.302;-6.362;2023-05-10T08:11:19;14.80;99.90
37788;DHT22;23627;53.302;-6.362;2023-05-10T08:13:46;14.80;99.90
37788;DHT22;23627;53.302;-6.362;2023-05-10T08:16:12;14.90;99.90
37788;DHT22;23627;53.302;-6.362;2023-05-10T08:18:38;15.00;99.90
37788;DHT22;23627;53.302;-6.362;2023-05-10T08:21:04;15.00;99.90
37788;DHT22;23627;53.302;-6.362;2023-05-10T08:23:30;15.00;99.90
37788;DHT22;23627;53.302;-6.362;2023-05-10T08:25:56;15.00;99.90
37788;DHT22;23627;53.302;-6.362;2023-05-10T08:28:22;15.00;99.90
37788;DHT22;23627;53.302;-6.362;2023-05-10T08:30:50;15.00;99.90
37788;DHT22;23627;53.302;-6.362;2023-05-10T08:33:17;15.00;99.90
37788;DHT22;23627;53.302;-6.362;2023-05-10T08:35:43;15.10;99.90
37788;DHT22;23627;53.302;-6.362;2023-05-10T08:38:08;15.10;99.90
37788;DHT22;23627;53.302;-6.362;2023-05-10T08:40:34;15.10;99.90
37788;DHT22;23627;53.302;-6.362;2023-05-10T08:43:05;15.10;99.90
37788;DHT22;23627;53.302;-6.362;2023-05-10T08:45:35;15.10;99.90
37788;DHT22;23627;53.302;-6.362;2023-05-10T08:48:05;15.10;99.90
37788;DHT22;23627;53.302;-6.362;2023-05-10T08:50:31;15.10;99.90
37788;DHT22;23627;53.302;-6.362;2023-05-10T08:53:00;15.10;99.90
37788;DHT22;23627;53.302;-6.362;2023-05-10T08:55:27;15.00;99.90
37788;DHT22;23627;53.302;-6.362;2023-05-10T08:57:53;15.00;99.90
37788;DHT22;23627;53.302;-6.362;2023-05-10T09:00:19;15.00;99.90
37788;DHT22;23627;53.302;-6.362;2023-05-10T09:02:45;15.00;99.90
37788;DHT22;23627;53.302;-6.362;2023-05-10T09:05:12;15.10;99.90
37788;DHT22;23627;53.302;-6.362;2023-05-10T09:07:38;15.10;99.90
37788;DHT22;23627;53.302;-6.362;2023-05-10T09:10:05;15.20;99.90
37788;DHT22;23627;53.302;-6.362;2023-05-10T09:12:31;15.30;99.90
37788;DHT22;23627;53.302;-6.362;2023-05-10T09:14:59;15.40;99.90
37788;DHT22;23627;53.302;-6.362;2023-05-10T09:17:25;15.60;99.90
37788;DHT22;23627;53.302;-6.362;2023-05-10T09:20:03;15.80;99.90
37788;DHT22;23627;53.302;-6.362;2023-05-10T09:22:32;16.00;99.90
37788;DHT22;23627;53.302;-6.362;2023-05-10T09:25:13;16.00;99.90
37788;DHT22;23627;53.302;-6.362;2023-05-10T09:27:41;16.10;99.90
37788;DHT22;23627;53.302;-6.362;2023-05-10T09:30:09;16.20;99.90
37788;DHT22;23627;53.302;-6.362;2023-05-10T09:32:40;16.40;99.90
37788;DHT22;23627;53.302;-6.362;2023-05-10T09:35:15;16.50;99.90
37788;DHT22;23627;53.302;-6.362;2023-05-10T09:37:46;16.60;99.90
37788;DHT22;23627;53.302;-6.362;2023-05-10T09:40:16;16.60;99.90
37788;DHT22;23627;53.302;-6.362;2023-05-10T09:42:55;16.60;99.90
37788;DHT22;23627;53.302;-6.362;2023-05-10T09:45:23;16.60;99.90
37788;DHT22;23627;53.302;-6.362;2023-05-10T09:47:49;16.60;99.90
37788;DHT22;23627;53.302;-6.362;2023-05-10T09:50:15;16.60;99.90
37788;DHT22;23627;53.302;-6.362;2023-05-10T09:52:52;16.60;99.90
37788;DHT22;23627;53.302;-6.362;2023-05-10T09:55:21;16.50;99.90
37788;DHT22;23627;53.302;-6.362;2023-05-10T09:57:47;16.60;99.90
37788;DHT22;23627;53.302;-6.362;2023-05-10T10:00:18;16.50;99.90
37788;DHT22;23627;53.302;-6.362;2023-05-10T10:03:04;16.50;99.90
37788;DHT22;23627;53.302;-6.362;2023-05-10T10:05:34;16.50;99.90
37788;DHT22;23627;53.302;-6.362;2023-05-10T10:08:04;16.30;99.90
37788;DHT22;23627;53.302;-6.362;2023-05-10T10:10:31;16.20;99.90
37788;DHT22;23627;53.302;-6.362;2023-05-10T10:12:58;16.20;99.90
37788;DHT22;23627;53.302;-6.362;2023-05-10T10:15:25;16.30;99.90
37788;DHT22;23627;53.302;-6.362;2023-05-10T10:17:52;16.40;99.90
37788;DHT22;23627;53.302;-6.362;2023-05-10T10:20:19;16.30;99.90
37788;DHT22;23627;53.302;-6.362;2023-05-10T10:22:45;16.30;99.90
37788;DHT22;23627;53.302;-6.362;2023-05-10T10:25:12;16.40;99.90
37788;DHT22;23627;53.302;-6.362;2023-05-10T10:27:42;16.40;99.90
37788;DHT22;23627;53.302;-6.362;2023-05-10T10:36:01;16.70;99.90
37788;DHT22;23627;53.302;-6.362;2023-05-10T10:41:35;16.70;99.90
37788;DHT22;23627;53.302;-6.362;2023-05-10T10:47:20;16.70;99.90
37788;DHT22;23627;53.302;-6.362;2023-05-10T10:50:03;16.70;99.90
37788;DHT22;23627;53.302;-6.362;2023-05-10T10:52:36;16.80;99.90
37788;DHT22;23627;53.302;-6.362;2023-05-10T11:02:52;17.00;99.90
37788;DHT22;23627;53.302;-6.362;2023-05-10T11:05:43;16.90;99.90
37788;DHT22;23627;53.302;-6.362;2023-05-10T11:08:39;16.80;99.90
37788;DHT22;23627;53.302;-6.362;2023-05-10T11:11:07;16.80;99.90
37788;DHT22;23627;53.302;-6.362;2023-05-10T11:13:33;16.90;99.90
37788;DHT22;23627;53.302;-6.362;2023-05-10T11:16:19;17.00;99.90
37788;DHT22;23627;53.302;-6.362;2023-05-10T11:19:09;17.10;99.90
37788;DHT22;23627;53.302;-6.362;2023-05-10T11:24:37;17.30;99.90
37788;DHT22;23627;53.302;-6.362;2023-05-10T11:27:03;17.40;99.90
37788;DHT22;23627;53.302;-6.362;2023-05-10T11:29:29;17.30;99.90
37788;DHT22;23627;53.302;-6.362;2023-05-10T11:31:58;17.40;99.90
37788;DHT22;23627;53.302;-6.362;2023-05-10T11:34:26;17.50;99.90
37788;DHT22;23627;53.302;-6.362;2023-05-10T11:36:53;17.60;99.90
37788;DHT22;23627;53.302;-6.362;2023-05-10T11:39:20;17.70;99.90
37788;DHT22;23627;53.302;-6.362;2023-05-10T11:41:49;17.70;99.90
37788;DHT22;23627;53.302;-6.362;2023-05-10T11:44:15;17.60;99.90
37788;DHT22;23627;53.302;-6.362;2023-05-10T11:46:40;17.70;99.90
37788;DHT22;23627;53.302;-6.362;2023-05-10T11:49:07;17.60;99.90
37788;DHT22;23627;53.302;-6.362;2023-05-10T11:51:36;17.60;99.90
37788;DHT22;23627;53.302;-6.362;2023-05-10T11:54:07;17.70;99.90
37788;DHT22;23627;53.302;-6.362;2023-05-10T11:56:39;17.70;99.90
37788;DHT22;23627;53.302;-6.362;2023-05-10T11:59:06;17.90;99.90
37788;DHT22;23627;53.302;-6.362;2023-05-10T12:01:32;18.00;99.90
37788;DHT22;23627;53.302;-6.362;2023-05-10T12:03:58;18.10;99.90
37788;DHT22;23627;53.302;-6.362;2023-05-10T12:06:30;18.10;99.90
37788;DHT22;23627;53.302;-6.362;2023-05-10T12:08:56;18.20;99.90
37788;DHT22;23627;53.302;-6.362;2023-05-10T12:11:25;18.20;99.90
37788;DHT22;23627;53.302;-6.362;2023-05-10T12:13:55;18.10;99.90
37788;DHT22;23627;53.302;-6.362;2023-05-10T12:16:22;18.10;99.90
37788;DHT22;23627;53.302;-6.362;2023-05-10T12:18:50;18.10;99.90
37788;DHT22;23627;53.302;-6.362;2023-05-10T12:21:20;18.10;99.90
37788;DHT22;23627;53.302;-6.362;2023-05-10T12:24:03;18.00;99.90
37788;DHT22;23627;53.302;-6.362;2023-05-10T12:26:29;18.00;99.90
37788;DHT22;23627;53.302;-6.362;2023-05-10T12:29:00;18.00;99.90
37788;DHT22;23627;53.302;-6.362;2023-05-10T12:31:56;18.00;99.90
37788;DHT22;23627;53.302;-6.362;2023-05-10T12:36:52;17.80;99.90
37788;DHT22;23627;53.302;-6.362;2023-05-10T12:39:18;17.70;99.90
37788;DHT22;23627;53.302;-6.362;2023-05-10T12:41:44;17.60;99.90
37788;DHT22;23627;53.302;-6.362;2023-05-10T12:44:10;17.70;99.90
37788;DHT22;23627;53.302;-6.362;2023-05-10T12:46:35;17.70;99.90
37788;DHT22;23627;53.302;-6.362;2023-05-10T12:49:01;17.70;99.90
37788;DHT22;23627;53.302;-6.362;2023-05-10T12:51:27;17.60;99.90
37788;DHT22;23627;53.302;-6.362;2023-05-10T12:53:53;17.60;99.90
37788;DHT22;23627;53.302;-6.362;2023-05-10T12:56:19;17.50;99.90
37788;DHT22;23627;53.302;-6.362;2023-05-10T12:58:45;17.50;99.90
37788;DHT22;23627;53.302;-6.362;2023-05-10T13:01:14;17.50;99.90
37788;DHT22;23627;53.302;-6.362;2023-05-10T13:03:40;17.40;99.90
37788;DHT22;23627;53.302;-6.362;2023-05-10T13:06:08;17.50;99.90
37788;DHT22;23627;53.302;-6.362;2023-05-10T13:08:34;17.50;99.90
37788;DHT22;23627;53.302;-6.362;2023-05-10T13:11:01;17.60;99.90
37788;DHT22;23627;53.302;-6.362;2023-05-10T13:13:27;17.60;99.90
37788;DHT22;23627;53.302;-6.362;2023-05-10T13:15:53;17.70;99.90
37788;DHT22;23627;53.302;-6.362;2023-05-10T13:18:18;17.70;99.90
37788;DHT22;23627;53.302;-6.362;2023-05-10T13:20:44;17.80;99.90
37788;DHT22;23627;53.302;-6.362;2023-05-10T13:23:10;17.90;99.90
37788;DHT22;23627;53.302;-6.362;2023-05-10T13:25:36;17.90;99.90
37788;DHT22;23627;53.302;-6.362;2023-05-10T13:28:02;18.00;99.90
37788;DHT22;23627;53.302;-6.362;2023-05-10T13:30:28;18.00;99.90
37788;DHT22;23627;53.302;-6.362;2023-05-10T13:32:54;18.10;99.90
37788;DHT22;23627;53.302;-6.362;2023-05-10T13:35:20;18.20;99.90
37788;DHT22;23627;53.302;-6.362;2023-05-10T13:37:46;18.20;99.90
37788;DHT22;23627;53.302;-6.362;2023-05-10T13:40:12;18.20;99.90
37788;DHT22;23627;53.302;-6.362;2023-05-10T13:42:38;18.20;99.90
37788;DHT22;23627;53.302;-6.362;2023-05-10T13:45:04;18.20;99.90
37788;DHT22;23627;53.302;-6.362;2023-05-10T13:47:40;18.20;99.90
37788;DHT22;23627;53.302;-6.362;2023-05-10T13:50:07;18.30;99.90
37788;DHT22;23627;53.302;-6.362;2023-05-10T13:52:32;18.30;99.90
37788;DHT22;23627;53.302;-6.362;2023-05-10T13:54:58;18.40;99.90
37788;DHT22;23627;53.302;-6.362;2023-05-10T13:57:24;18.40;99.90
37788;DHT22;23627;53.302;-6.362;2023-05-10T13:59:51;18.30;99.90
37788;DHT22;23627;53.302;-6.362;2023-05-10T14:02:16;18.20;99.90
37788;DHT22;23627;53.302;-6.362;2023-05-10T14:04:42;18.10;99.90
37788;DHT22;23627;53.302;-6.362;2023-05-10T14:07:08;18.00;99.90
37788;DHT22;23627;53.302;-6.362;2023-05-10T14:09:34;18.20;99.90
37788;DHT22;23627;53.302;-6.362;2023-05-10T14:11:59;18.20;99.90
37788;DHT22;23627;53.302;-6.362;2023-05-10T14:14:25;18.30;99.90
37788;DHT22;23627;53.302;-6.362;2023-05-10T14:16:51;18.20;99.90
37788;DHT22;23627;53.302;-6.362;2023-05-10T14:19:17;18.20;99.90
37788;DHT22;23627;53.302;-6.362;2023-05-10T14:21:43;18.20;99.90
37788;DHT22;23627;53.302;-6.362;2023-05-10T14:24:09;18.30;99.90
37788;DHT22;23627;53.302;-6.362;2023-05-10T14:26:34;18.20;99.90
37788;DHT22;23627;53.302;-6.362;2023-05-10T14:29:00;18.10;99.90
37788;DHT22;23627;53.302;-6.362;2023-05-10T14:31:26;18.00;99.90
37788;DHT22;23627;53.302;-6.362;2023-05-10T14:33:52;17.90;99.90
37788;DHT22;23627;53.302;-6.362;2023-05-10T14:36:18;17.90;99.90
37788;DHT22;23627;53.302;-6.362;2023-05-10T14:38:44;17.80;99.90
37788;DHT22;23627;53.302;-6.362;2023-05-10T14:41:10;17.80;99.90
37788;DHT22;23627;53.302;-6.362;2023-05-10T14:43:39;17.90;99.90
37788;DHT22;23627;53.302;-6.362;2023-05-10T14:46:05;17.90;99.90
37788;DHT22;23627;53.302;-6.362;2023-05-10T14:48:31;17.90;99.90
37788;DHT22;23627;53.302;-6.362;2023-05-10T14:50:57;17.90;99.90
37788;DHT22;23627;53.302;-6.362;2023-05-10T14:53:23;18.00;99.90
37788;DHT22;23627;53.302;-6.362;2023-05-10T14:55:50;18.00;99.90
37788;DHT22;23627;53.302;-6.362;2023-05-10T14:58:16;18.20;99.90
37788;DHT22;23627;53.302;-6.362;2023-05-10T15:00:42;18.30;99.90
37788;DHT22;23627;53.302;-6.362;2023-05-10T15:03:07;18.40;99.90
37788;DHT22;23627;53.302;-6.362;2023-05-10T15:05:33;18.60;99.90
37788;DHT22;23627;53.302;-6.362;2023-05-10T15:07:59;18.60;99.90
37788;DHT22;23627;53.302;-6.362;2023-05-10T15:10:25;18.50;99.90
37788;DHT22;23627;53.302;-6.362;2023-05-10T15:12:50;18.40;99.90
37788;DHT22;23627;53.302;-6.362;2023-05-10T15:15:16;18.30;99.90
37788;DHT22;23627;53.302;-6.362;2023-05-10T15:17:42;18.20;99.90
37788;DHT22;23627;53.302;-6.362;2023-05-10T15:20:08;18.10;99.90
37788;DHT22;23627;53.302;-6.362;2023-05-10T15:22:34;18.10;99.90
37788;DHT22;23627;53.302;-6.362;2023-05-10T15:24:59;18.00;99.90
37788;DHT22;23627;53.302;-6.362;2023-05-10T15:27:25;18.00;99.90
37788;DHT22;23627;53.302;-6.362;2023-05-10T15:29:52;17.90;99.90
37788;DHT22;23627;53.302;-6.362;2023-05-10T15:32:18;17.90;99.90
37788;DHT22;23627;53.302;-6.362;2023-05-10T15:34:43;17.90;99.90
37788;DHT22;23627;53.302;-6.362;2023-05-10T15:37:09;17.90;99.90
37788;DHT22;23627;53.302;-6.362;2023-05-10T15:39:35;17.80;99.90
37788;DHT22;23627;53.302;-6.362;2023-05-10T15:42:01;17.80;99.90
37788;DHT22;23627;53.302;-6.362;2023-05-10T15:44:28;17.80;99.90
37788;DHT22;23627;53.302;-6.362;2023-05-10T15:46:54;17.80;99.90
37788;DHT22;23627;53.302;-6.362;2023-05-10T15:49:20;17.70;99.90
37788;DHT22;23627;53.302;-6.362;2023-05-10T15:51:46;17.70;99.90
37788;DHT22;23627;53.302;-6.362;2023-05-10T15:54:11;17.80;99.90
37788;DHT22;23627;53.302;-6.362;2023-05-10T15:56:37;17.80;99.90
37788;DHT22;23627;53.302;-6.362;2023-05-10T15:59:04;17.70;99.90
37788;DHT22;23627;53.302;-6.362;2023-05-10T16:01:33;17.70;99.90
37788;DHT22;23627;53.302;-6.362;2023-05-10T16:03:59;17.70;99.90
37788;DHT22;23627;53.302;-6.362;2023-05-10T16:06:26;17.70;99.90
37788;DHT22;23627;53.302;-6.362;2023-05-10T16:08:55;17.80;99.90
37788;DHT22;23627;53.302;-6.362;2023-05-10T16:11:21;17.80;99.90
37788;DHT22;23627;53.302;-6.362;2023-05-10T16:13:47;17.90;99.90